createdAt,value
2023-03-10T00:00:08.667Z,98142.89
2023-03-10T00:02:37.273Z,98142.64
2023-03-10T00:05:06.567Z,98146.66
2023-03-10T00:07:39.284Z,98140.27
2023-03-10T00:10:07.657Z,98138.17
2023-03-10T00:12:36.054Z,98144.91
2023-03-10T00:15:04.476Z,98150.00
2023-03-10T00:17:36.142Z,98155.65
2023-03-10T00:20:10.835Z,98165.83
2023-03-10T00:22:39.115Z,98170.23
2023-03-10T00:25:09.464Z,98162.13
2023-03-10T00:27:37.419Z,98164.64
2023-03-10T00:30:05.033Z,98162.62
2023-03-10T00:32:38.150Z,98157.83
2023-03-10T00:35:08.957Z,98166.05
2023-03-10T00:37:37.851Z,98173.11
2023-03-10T00:40:10.473Z,98171.21
2023-03-10T00:42:37.910Z,98171.02
2023-03-10T00:45:05.480Z,98174.93
2023-03-10T00:47:35.596Z,98181.69
2023-03-10T00:50:03.307Z,98183.83
2023-03-10T00:52:32.502Z,98195.48
2023-03-10T00:54:59.677Z,98203.93
2023-03-10T00:57:27.026Z,98221.31
2023-03-10T00:59:54.047Z,98231.23
2023-03-10T01:02:22.165Z,98243.29
2023-03-10T01:04:51.761Z,98250.95
2023-03-10T01:07:19.616Z,98265.80
2023-03-10T01:09:47.903Z,98271.00
2023-03-10T01:12:15.237Z,98277.71
2023-03-10T01:14:43.094Z,98281.83
2023-03-10T01:17:13.751Z,98287.74
2023-03-10T01:19:42.339Z,98292.82
2023-03-10T01:22:10.258Z,98294.47
2023-03-10T01:24:40.695Z,98305.96
2023-03-10T01:27:08.968Z,98314.29
2023-03-10T01:29:37.033Z,98314.67
2023-03-10T01:32:06.460Z,98325.27
2023-03-10T01:34:35.466Z,98332.45
2023-03-10T01:37:02.583Z,98336.45
2023-03-10T01:39:29.798Z,98338.20
2023-03-10T01:41:56.995Z,98337.61
2023-03-10T01:44:24.328Z,98337.86
2023-03-10T01:46:55.939Z,98348.20
2023-03-10T01:49:51.103Z,98356.17
2023-03-10T01:52:20.851Z,98360.08
2023-03-10T01:55:22.027Z,98361.97
2023-03-10T01:57:54.877Z,98371.05
2023-03-10T02:00:24.128Z,98373.44
2023-03-10T02:03:14.425Z,98386.02
2023-03-10T02:05:45.136Z,98392.08
2023-03-10T02:08:15.794Z,98402.31
2023-03-10T02:10:44.783Z,98406.13
2023-03-10T02:13:13.835Z,98410.56
2023-03-10T02:15:43.191Z,98410.30
2023-03-10T02:18:11.515Z,98417.20
2023-03-10T02:21:01.534Z,98418.23
2023-03-10T02:24:01.369Z,98425.44
2023-03-10T02:26:41.316Z,98432.91
2023-03-10T02:29:13.869Z,98439.84
2023-03-10T02:31:41.360Z,98456.11
2023-03-10T02:34:09.556Z,98468.65
2023-03-10T02:36:38.951Z,98471.02
2023-03-10T02:39:05.948Z,98479.25
2023-03-10T02:41:35.652Z,98484.02
2023-03-10T02:44:09.413Z,98485.34
2023-03-10T02:46:37.016Z,98493.39
2023-03-10T02:49:10.373Z,98498.48
2023-03-10T02:51:45.340Z,98497.46
2023-03-10T02:54:15.969Z,98502.99
2023-03-10T02:56:43.300Z,98503.23
2023-03-10T02:59:15.567Z,98507.61
2023-03-10T03:01:47.862Z,98505.23
2023-03-10T03:04:15.433Z,98508.38
2023-03-10T03:06:43.596Z,98511.66
2023-03-10T03:09:12.024Z,98509.19
2023-03-10T03:11:40.491Z,98511.27
2023-03-10T03:14:12.555Z,98519.02
2023-03-10T03:16:40.732Z,98527.02
2023-03-10T03:19:09.873Z,98531.46
2023-03-10T03:21:37.699Z,98537.66
2023-03-10T03:24:05.028Z,98540.89
2023-03-10T03:26:34.946Z,98546.00
2023-03-10T03:29:11.486Z,98549.38
2023-03-10T03:31:39.573Z,98541.67
2023-03-10T03:34:15.210Z,98542.50
2023-03-10T03:36:44.551Z,98553.79
2023-03-10T03:39:17.657Z,98560.84
2023-03-10T03:41:48.569Z,98563.48
2023-03-10T03:44:16.248Z,98572.55
2023-03-10T03:46:46.692Z,98574.11
2023-03-10T03:49:14.286Z,98580.80
2023-03-10T03:51:47.398Z,98586.09
2023-03-10T03:54:14.951Z,98587.73
2023-03-10T03:56:42.441Z,98593.48
2023-03-10T03:59:10.238Z,98595.46
2023-03-10T04:01:40.200Z,98601.85
2023-03-10T04:04:07.376Z,98605.95
2023-03-10T04:06:37.815Z,98610.49
2023-03-10T04:09:06.526Z,98618.70
2023-03-10T04:11:34.371Z,98618.60
2023-03-10T04:14:04.126Z,98628.31
2023-03-10T04:16:32.401Z,98634.87
2023-03-10T04:19:01.269Z,98636.59
2023-03-10T04:21:30.555Z,98639.31
2023-03-10T04:23:58.380Z,98637.02
2023-03-10T04:26:30.236Z,98638.44
2023-03-10T04:29:00.456Z,98631.06
2023-03-10T04:31:34.672Z,98638.88
2023-03-10T04:34:02.400Z,98645.30
2023-03-10T04:36:29.956Z,98648.38
2023-03-10T04:38:58.596Z,98650.92
2023-03-10T04:41:29.138Z,98655.02
2023-03-10T04:44:03.383Z,98653.66
2023-03-10T04:46:32.369Z,98657.55
2023-03-10T04:48:59.809Z,98660.45
2023-03-10T04:51:26.853Z,98662.13
2023-03-10T04:53:56.668Z,98666.73
2023-03-10T04:56:26.362Z,98672.42
2023-03-10T04:58:54.475Z,98672.48
2023-03-10T05:01:22.003Z,98674.08
2023-03-10T05:03:52.849Z,98675.60
2023-03-10T05:06:20.988Z,98677.44
2023-03-10T05:08:55.666Z,98678.75
2023-03-10T05:11:24.859Z,98669.83
2023-03-10T05:13:52.197Z,98677.73
2023-03-10T05:16:24.779Z,98687.45
2023-03-10T05:18:54.864Z,98688.14
2023-03-10T05:21:27.654Z,98681.32
2023-03-10T05:23:55.613Z,98681.98
2023-03-10T05:26:25.434Z,98686.25
2023-03-10T05:28:53.361Z,98694.85
2023-03-10T05:31:30.569Z,98697.46
2023-03-10T05:34:04.088Z,98701.13
2023-03-10T05:36:31.578Z,98703.85
2023-03-10T05:39:00.133Z,98712.40
2023-03-10T05:41:29.818Z,98713.42
2023-03-10T05:44:03.821Z,98716.23
2023-03-10T05:46:32.099Z,98722.05
2023-03-10T05:49:01.087Z,98718.66
2023-03-10T05:51:28.706Z,98731.42
2023-03-10T05:53:57.304Z,98732.45
2023-03-10T05:56:27.791Z,98739.02
2023-03-10T05:59:02.549Z,98742.58
2023-03-10T06:01:32.651Z,98749.73
2023-03-10T06:04:04.039Z,98760.31
2023-03-10T06:06:33.072Z,98764.95
2023-03-10T06:09:00.540Z,98760.22
2023-03-10T06:11:34.502Z,98763.61
2023-03-10T06:14:03.881Z,98768.27
2023-03-10T06:16:32.187Z,98766.28
2023-03-10T06:19:01.448Z,98769.64
2023-03-10T06:21:29.229Z,98767.09
2023-03-10T06:23:56.911Z,98774.83
2023-03-10T06:26:26.913Z,98780.13
2023-03-10T06:28:54.121Z,98784.20
2023-03-10T06:31:22.813Z,98782.33
2023-03-10T06:33:50.599Z,98780.38
2023-03-10T06:36:19.893Z,98776.09
2023-03-10T06:38:52.178Z,98766.24
2023-03-10T06:41:39.890Z,98773.73
2023-03-10T06:44:09.311Z,98774.86
2023-03-10T06:46:38.723Z,98779.00
2023-03-10T06:49:07.054Z,98779.42
2023-03-10T06:51:38.244Z,98774.92
2023-03-10T06:54:06.834Z,98779.33
2023-03-10T06:56:35.361Z,98778.14
2023-03-10T06:59:06.013Z,98778.40
2023-03-10T07:01:35.145Z,98784.19
2023-03-10T07:04:05.177Z,98777.61
2023-03-10T07:06:45.022Z,98779.27
2023-03-10T07:09:24.394Z,98783.98
2023-03-10T07:11:57.533Z,98786.21
2023-03-10T07:14:29.043Z,98788.05
2023-03-10T07:17:00.950Z,98788.96
2023-03-10T07:19:34.233Z,98789.10
2023-03-10T07:22:11.427Z,98783.56
2023-03-10T07:24:41.191Z,98776.71
2023-03-10T07:27:17.787Z,98773.27
2023-03-10T07:29:53.517Z,98770.73
2023-03-10T07:32:21.790Z,98773.31
2023-03-10T07:35:08.420Z,98776.78
2023-03-10T07:37:42.870Z,98798.85
2023-03-10T07:40:11.399Z,98803.62
2023-03-10T07:42:43.057Z,98813.48
2023-03-10T07:45:13.172Z,98817.05
2023-03-10T07:47:57.756Z,98825.20
2023-03-10T07:50:28.729Z,98834.27
2023-03-10T07:52:56.796Z,98831.83
2023-03-10T07:55:34.267Z,98837.42
2023-03-10T07:58:05.851Z,98854.48
2023-03-10T08:00:33.549Z,98863.27
2023-03-10T08:03:05.762Z,98863.55
2023-03-10T08:05:41.524Z,98857.52
2023-03-10T08:08:18.022Z,98868.79
2023-03-10T08:10:47.704Z,98865.11
2023-03-10T08:13:17.719Z,98853.09
2023-03-10T08:15:45.743Z,98855.11
2023-03-10T08:18:14.931Z,98863.77
2023-03-10T08:20:43.093Z,98855.27
2023-03-10T08:23:19.235Z,98855.77
2023-03-10T08:25:54.924Z,98863.10
2023-03-10T08:28:30.472Z,98870.77
2023-03-10T08:31:09.655Z,98868.96
2023-03-10T08:33:44.455Z,98855.23
2023-03-10T08:36:19.649Z,98848.21
2023-03-10T08:38:51.067Z,98859.96
2023-03-10T08:41:26.583Z,98861.43
2023-03-10T08:44:34.680Z,98859.79
2023-03-10T08:47:09.115Z,98851.60
2023-03-10T08:49:43.166Z,98850.05
2023-03-10T08:52:16.413Z,98847.73
2023-03-10T08:54:45.321Z,98840.11
2023-03-10T08:57:14.654Z,98830.75
2023-03-10T08:59:44.329Z,98833.00
2023-03-10T09:02:16.721Z,98833.77
2023-03-10T09:04:47.865Z,98823.61
2023-03-10T09:07:23.454Z,98825.89
2023-03-10T09:09:53.658Z,98831.45
2023-03-10T09:12:33.196Z,98843.15
2023-03-10T09:15:07.319Z,98842.18
2023-03-10T09:17:40.780Z,98847.00
2023-03-10T09:20:15.462Z,98853.41
2023-03-10T09:22:53.614Z,98853.27
2023-03-10T09:25:25.126Z,98840.59
2023-03-10T09:27:53.892Z,98843.30
2023-03-10T09:30:23.322Z,98838.23
2023-03-10T09:33:00.133Z,98825.98
2023-03-10T09:35:33.319Z,98827.70
2023-03-10T09:38:22.998Z,98824.84
2023-03-10T09:41:48.605Z,98824.57
2023-03-10T09:44:33.279Z,98821.79
2023-03-10T09:47:15.131Z,98826.89
2023-03-10T09:50:21.043Z,98830.56
2023-03-10T09:53:00.648Z,98824.66
2023-03-10T09:56:07.613Z,98830.98
2023-03-10T09:58:55.183Z,98838.74
2023-03-10T10:01:36.096Z,98851.70
2023-03-10T10:04:18.580Z,98856.23
2023-03-10T10:06:48.118Z,98852.06
2023-03-10T10:09:29.822Z,98845.13
2023-03-10T10:12:17.572Z,98831.23
2023-03-10T10:14:57.284Z,98823.64
2023-03-10T10:18:19.625Z,98816.09
2023-03-10T10:20:59.070Z,98811.59
2023-03-10T10:23:40.356Z,98795.68
2023-03-10T10:29:40.328Z,98789.59
2023-03-10T10:32:23.145Z,98793.73
2023-03-10T10:35:15.063Z,98796.17
2023-03-10T10:37:45.835Z,98798.11
2023-03-10T10:40:26.102Z,98812.86
2023-03-10T10:43:01.573Z,98824.34
2023-03-10T10:45:38.663Z,98827.42
2023-03-10T10:48:11.297Z,98826.02
2023-03-10T10:50:55.113Z,98841.23
2023-03-10T10:53:27.484Z,98843.70
2023-03-10T10:59:44.038Z,98829.53
2023-03-10T11:02:40.232Z,98820.67
2023-03-10T11:05:38.247Z,98820.43
2023-03-10T11:08:40.576Z,98805.98
2023-03-10T11:11:33.560Z,98795.24
2023-03-10T11:14:20.673Z,98788.40
2023-03-10T11:17:29.781Z,98801.04
2023-03-10T11:20:13.568Z,98796.79
2023-03-10T11:23:24.165Z,98797.10
2023-03-10T11:26:06.399Z,98810.29
2023-03-10T11:28:44.584Z,98802.42
2023-03-10T11:32:08.432Z,98805.69
2023-03-10T11:34:50.823Z,98807.08
2023-03-10T11:37:55.464Z,98806.30
2023-03-10T11:44:12.335Z,98802.32
2023-03-10T11:47:09.171Z,98796.58
2023-03-10T11:49:41.140Z,98790.05
2023-03-10T11:52:26.566Z,98795.27
2023-03-10T11:55:13.096Z,98796.75
2023-03-10T11:57:46.169Z,98789.33
2023-03-10T12:00:21.334Z,98788.02
2023-03-10T12:03:17.176Z,98787.38
2023-03-10T12:05:58.468Z,98783.60
2023-03-10T12:08:37.455Z,98779.55
2023-03-10T12:11:24.967Z,98783.23
2023-03-10T12:14:25.346Z,98770.25
2023-03-10T12:17:08.055Z,98775.89
2023-03-10T12:20:33.988Z,98772.35
2023-03-10T12:26:49.865Z,98760.01
2023-03-10T12:29:21.413Z,98752.85
2023-03-10T12:31:55.564Z,98752.36
2023-03-10T12:34:34.132Z,98753.78
2023-03-10T12:37:15.735Z,98758.59
2023-03-10T12:39:46.526Z,98759.35
2023-03-10T12:42:32.697Z,98757.86
2023-03-10T12:45:28.981Z,98763.52
2023-03-10T12:48:20.807Z,98768.16
2023-03-10T12:50:57.342Z,98765.83
2023-03-10T12:53:36.469Z,98768.94
2023-03-10T12:56:14.105Z,98766.60
2023-03-10T12:59:13.198Z,98761.73
2023-03-10T13:01:56.286Z,98748.19
2023-03-10T13:04:41.554Z,98741.26
2023-03-10T13:07:18.060Z,98743.45
2023-03-10T13:09:51.311Z,98740.33
2023-03-10T13:12:48.019Z,98742.97
2023-03-10T13:15:26.207Z,98744.98
2023-03-10T13:18:25.774Z,98736.56
2023-03-10T13:21:05.837Z,98731.95
2023-03-10T13:23:39.557Z,98720.64
2023-03-10T13:26:16.610Z,98718.94
2023-03-10T13:29:05.923Z,98713.55
2023-03-10T13:31:36.160Z,98705.61
2023-03-10T13:34:19.553Z,98711.87
2023-03-10T13:36:54.679Z,98700.73
2023-03-10T13:39:27.246Z,98700.58
2023-03-10T13:41:59.726Z,98705.48
2023-03-10T13:44:41.822Z,98704.37
2023-03-10T13:47:22.901Z,98704.94
2023-03-10T13:49:56.387Z,98697.34
2023-03-10T13:52:28.950Z,98701.53
2023-03-10T13:55:13.094Z,98702.94
2023-03-10T13:57:45.607Z,98695.19
2023-03-10T14:00:25.486Z,98689.00
2023-03-10T14:02:56.538Z,98683.34
2023-03-10T14:05:53.503Z,98679.51
2023-03-10T14:08:30.653Z,98678.87
2023-03-10T14:11:40.747Z,98676.02
2023-03-10T14:14:38.251Z,98662.20
2023-03-10T14:20:48.419Z,98665.88
2023-03-10T14:23:28.828Z,98665.78
2023-03-10T14:26:08.534Z,98662.08
2023-03-10T14:28:36.420Z,98662.73
2023-03-10T14:32:13.079Z,98656.05
2023-03-10T14:38:13.881Z,98659.98
2023-03-10T14:41:19.202Z,98656.00
2023-03-10T14:44:14.206Z,98659.91
2023-03-10T14:47:00.328Z,98656.16
2023-03-10T14:49:31.181Z,98655.58
2023-03-10T14:52:04.925Z,98656.61
2023-03-10T14:54:44.918Z,98656.69
2023-03-10T14:57:22.285Z,98659.99
2023-03-10T15:00:13.253Z,98663.12
2023-03-10T15:02:45.051Z,98661.27
2023-03-10T15:05:27.690Z,98656.33
2023-03-10T15:08:08.556Z,98649.01
2023-03-10T15:11:17.450Z,98646.00
2023-03-10T15:13:58.350Z,98643.06
2023-03-10T15:16:40.840Z,98636.95
2023-03-10T15:19:47.210Z,98631.94
2023-03-10T15:22:17.149Z,98628.05
2023-03-10T15:24:49.219Z,98625.45
2023-03-10T15:27:22.813Z,98629.05
2023-03-10T15:30:00.990Z,98621.80
2023-03-10T15:32:38.945Z,98622.07
2023-03-10T15:35:14.687Z,98625.02
2023-03-10T15:37:48.134Z,98627.36
2023-03-10T15:40:27.728Z,98627.98
2023-03-10T15:43:04.450Z,98630.67
2023-03-10T15:45:42.155Z,98630.73
2023-03-10T15:48:13.652Z,98632.20
2023-03-10T15:50:52.647Z,98634.18
2023-03-10T15:53:30.829Z,98634.96
2023-03-10T15:56:10.017Z,98639.88
2023-03-10T15:59:04.356Z,98637.66
2023-03-10T16:01:39.198Z,98642.71
2023-03-10T16:04:08.401Z,98649.42
2023-03-10T16:06:36.898Z,98651.51
2023-03-10T16:09:10.388Z,98653.07
2023-03-10T16:11:54.462Z,98644.69
2023-03-10T16:14:30.395Z,98640.84
2023-03-10T16:17:01.323Z,98637.58
2023-03-10T16:19:29.064Z,98635.66
2023-03-10T16:22:00.807Z,98636.31
2023-03-10T16:24:33.610Z,98638.02
2023-03-10T16:27:05.397Z,98640.61
2023-03-10T16:29:34.509Z,98641.10
2023-03-10T16:32:17.846Z,98637.88
2023-03-10T16:34:50.053Z,98634.87
2023-03-10T16:37:19.901Z,98634.34
2023-03-10T16:39:54.294Z,98632.86
2023-03-10T16:42:26.043Z,98634.83
2023-03-10T16:44:57.827Z,98628.38
2023-03-10T16:47:31.118Z,98631.15
2023-03-10T16:50:02.756Z,98622.27
2023-03-10T16:52:30.425Z,98626.98
2023-03-10T16:55:04.640Z,98625.67
2023-03-10T16:57:36.108Z,98624.65
2023-03-10T17:00:11.974Z,98623.58
2023-03-10T17:02:50.099Z,98623.26
2023-03-10T17:05:18.795Z,98621.64
2023-03-10T17:07:55.578Z,98608.59
2023-03-10T17:10:26.340Z,98603.42
2023-03-10T17:12:54.203Z,98601.67
2023-03-10T17:15:28.420Z,98606.86
2023-03-10T17:18:01.939Z,98608.38
2023-03-10T17:20:35.464Z,98609.52
2023-03-10T17:23:43.637Z,98614.71
2023-03-10T17:26:23.283Z,98610.38
2023-03-10T17:29:17.276Z,98615.09
2023-03-10T17:31:57.993Z,98611.19
2023-03-10T17:34:35.636Z,98606.29
2023-03-10T17:37:06.481Z,98606.36
2023-03-10T17:39:36.891Z,98606.92
2023-03-10T17:42:07.736Z,98602.02
2023-03-10T17:44:37.929Z,98608.11
2023-03-10T17:47:12.680Z,98606.95
2023-03-10T17:49:48.020Z,98612.69
2023-03-10T17:52:22.493Z,98611.15
2023-03-10T17:55:22.361Z,98611.72
2023-03-10T17:57:57.500Z,98609.09
2023-03-10T18:00:28.542Z,98607.39
2023-03-10T18:02:58.421Z,98604.90
2023-03-10T18:05:44.445Z,98604.92
2023-03-10T18:08:16.950Z,98601.31
2023-03-10T18:10:48.601Z,98597.74
2023-03-10T18:13:19.984Z,98595.73
2023-03-10T18:16:02.050Z,98591.14
2023-03-10T18:18:30.191Z,98589.31
2023-03-10T18:21:00.613Z,98585.16
2023-03-10T18:23:34.361Z,98587.38
2023-03-10T18:26:25.401Z,98586.61
2023-03-10T18:28:53.502Z,98583.31
2023-03-10T18:31:29.935Z,98577.64
2023-03-10T18:34:03.390Z,98576.65
2023-03-10T18:36:33.535Z,98575.71
2023-03-10T18:39:07.811Z,98575.57
2023-03-10T18:41:41.406Z,98579.67
2023-03-10T18:44:11.063Z,98577.11
2023-03-10T18:46:47.264Z,98568.87
2023-03-10T18:49:15.044Z,98566.77
2023-03-10T18:51:48.729Z,98565.28
2023-03-10T18:54:20.832Z,98560.92
2023-03-10T18:56:51.242Z,98553.34
2023-03-10T18:59:24.880Z,98558.29
2023-03-10T19:01:55.492Z,98555.66
2023-03-10T19:04:25.326Z,98550.02
2023-03-10T19:06:57.464Z,98550.88
2023-03-10T19:09:29.115Z,98550.45
2023-03-10T19:12:14.702Z,98547.36
2023-03-10T19:14:48.819Z,98543.72
2023-03-10T19:17:26.247Z,98540.67
2023-03-10T19:19:54.153Z,98538.35
2023-03-10T19:22:22.519Z,98533.38
2023-03-10T19:24:59.198Z,98535.34
2023-03-10T19:27:31.878Z,98531.02
2023-03-10T19:32:52.221Z,98525.77
2023-03-10T19:35:24.039Z,98519.92
2023-03-10T19:37:52.650Z,98519.67
2023-03-10T19:40:27.904Z,98514.27
2023-03-10T19:42:57.567Z,98512.72
2023-03-10T19:45:33.503Z,98513.83
2023-03-10T19:48:04.185Z,98506.65
2023-03-10T19:50:33.309Z,98506.60
2023-03-10T19:53:02.180Z,98507.69
2023-03-10T19:55:34.319Z,98494.40
2023-03-10T19:58:03.418Z,98493.49
2023-03-10T20:00:36.003Z,98488.14
2023-03-10T20:03:06.496Z,98495.86
2023-03-10T20:05:42.344Z,98497.15
2023-03-10T20:08:11.310Z,98499.38
2023-03-10T20:10:45.007Z,98491.71
2023-03-10T20:13:13.732Z,98492.36
2023-03-10T20:15:47.690Z,98492.63
2023-03-10T20:18:21.420Z,98490.29
2023-03-10T20:20:49.892Z,98491.75
2023-03-10T20:23:21.732Z,98485.90
2023-03-10T20:25:51.164Z,98484.05
2023-03-10T20:28:19.731Z,98486.13
2023-03-10T20:30:49.203Z,98488.13
2023-03-10T20:33:21.897Z,98482.98
2023-03-10T20:35:56.860Z,98479.93
2023-03-10T20:38:25.369Z,98468.98
2023-03-10T20:40:55.987Z,98470.90
2023-03-10T20:43:30.413Z,98468.45
2023-03-10T20:46:06.708Z,98463.70
2023-03-10T20:48:43.428Z,98468.65
2023-03-10T20:51:15.087Z,98470.83
2023-03-10T20:53:45.663Z,98465.11
2023-03-10T20:56:16.024Z,98466.48
2023-03-10T20:58:47.180Z,98462.74
